createdAt,value
2018-02-22T00:00:50.503Z,25.73
2018-02-22T00:05:54.358Z,21.90
2018-02-22T00:10:58.226Z,25.60
2018-02-22T00:16:02.695Z,24.93
2018-02-22T00:21:06.139Z,26.17
2018-02-22T00:26:09.232Z,26.17
2018-02-22T00:31:13.452Z,22.20
2018-02-22T00:36:17.692Z,25.13
2018-02-22T00:41:22.442Z,25.37
2018-02-22T00:46:25.517Z,23.97
2018-02-22T00:51:30.276Z,26.73
2018-02-22T00:56:35.074Z,23.97
2018-02-22T01:01:38.192Z,25.53
2018-02-22T01:06:42.626Z,24.67
2018-02-22T01:11:46.480Z,26.07
2018-02-22T01:16:50.940Z,25.50
2018-02-22T01:21:54.815Z,25.53
2018-02-22T01:26:58.375Z,27.10
2018-02-22T01:32:02.808Z,26.87
2018-02-22T01:37:05.904Z,31.40
2018-02-22T01:42:10.517Z,32.50
2018-02-22T01:47:13.603Z,28.93
2018-02-22T01:52:16.703Z,24.40
2018-02-22T01:57:21.138Z,26.80
2018-02-22T02:02:25.415Z,29.12
2018-02-22T02:07:30.063Z,27.58
2018-02-22T02:12:34.659Z,24.20
2018-02-22T02:17:38.463Z,27.27
2018-02-22T02:22:41.549Z,24.20
2018-02-22T02:27:51.424Z,26.03
2018-02-22T02:32:55.571Z,24.03
2018-02-22T02:38:00.020Z,27.70
2018-02-22T02:43:04.475Z,28.43
2018-02-22T02:53:36.585Z,27.13
2018-02-22T02:58:40.828Z,27.80
2018-02-22T03:03:44.741Z,27.27
2018-02-22T03:08:47.849Z,26.87
2018-02-22T03:13:52.297Z,26.50
2018-02-22T03:18:56.927Z,27.43
2018-02-22T03:24:00.419Z,28.40
2018-02-22T03:29:04.868Z,27.73
2018-02-22T03:34:09.318Z,27.33
2018-02-22T03:39:13.967Z,28.95
2018-02-22T03:44:17.204Z,28.03
2018-02-22T03:49:21.440Z,27.63
2018-02-22T03:54:25.448Z,25.67
2018-02-22T03:59:29.295Z,25.20
2018-02-22T04:04:33.164Z,28.20
2018-02-22T04:09:37.888Z,29.37
2018-02-22T04:14:42.324Z,28.30
2018-02-22T04:19:46.763Z,28.53
2018-02-22T04:24:51.228Z,30.07
2018-02-22T04:29:55.088Z,27.70
2018-02-22T04:34:58.205Z,28.43
2018-02-22T04:40:01.326Z,29.50
2018-02-22T04:45:05.683Z,27.87
2018-02-22T04:50:10.139Z,28.85
2018-02-22T04:55:14.355Z,30.43
2018-02-22T05:00:18.808Z,29.67
2018-02-22T05:05:24.237Z,28.83
2018-02-22T05:10:27.331Z,31.13
2018-02-22T05:15:31.552Z,29.67
2018-02-22T05:20:36.020Z,31.10
2018-02-22T05:25:39.896Z,27.47
2018-02-22T05:30:45.023Z,28.63
2018-02-22T05:35:49.507Z,25.47
2018-02-22T05:40:53.408Z,30.17
2018-02-22T05:45:56.545Z,28.03
2018-02-22T05:51:01.364Z,28.23
2018-02-22T05:56:04.844Z,24.57
2018-02-22T06:01:07.931Z,25.87
2018-02-22T06:06:11.039Z,26.43
2018-02-22T06:11:14.139Z,24.30
2018-02-22T06:16:17.280Z,27.00
2018-02-22T06:21:21.508Z,27.60
2018-02-22T06:26:25.988Z,27.33
2018-02-22T06:31:30.661Z,28.37
2018-02-22T06:36:33.803Z,27.13
2018-02-22T06:41:36.896Z,27.77
2018-02-22T06:46:40.764Z,26.13
2018-02-22T06:51:44.949Z,28.25
2018-02-22T06:56:49.375Z,28.77
2018-02-22T07:01:53.299Z,27.83
2018-02-22T07:06:57.731Z,28.40
2018-02-22T07:12:01.960Z,29.13
2018-02-22T07:17:06.176Z,27.08
2018-02-22T07:22:09.684Z,27.63
2018-02-22T07:27:14.528Z,28.10
2018-02-22T07:32:18.064Z,25.17
2018-02-22T07:37:21.912Z,24.97
2018-02-22T07:42:26.366Z,21.67
2018-02-22T07:47:30.971Z,24.40
2018-02-22T07:52:34.848Z,25.17
2018-02-22T07:57:37.935Z,21.33
2018-02-22T08:02:41.793Z,22.90
2018-02-22T08:07:46.384Z,19.93
2018-02-22T08:12:49.475Z,21.73
2018-02-22T08:17:53.336Z,21.57
2018-02-22T08:22:57.936Z,19.70
2018-02-22T08:28:01.418Z,21.93
2018-02-22T08:33:06.037Z,22.20
2018-02-22T08:38:09.457Z,20.17
2018-02-22T08:43:13.198Z,20.30
2018-02-22T08:48:17.619Z,18.90
2018-02-22T08:53:22.217Z,14.38
2018-02-22T08:58:26.657Z,14.13
2018-02-22T09:03:31.093Z,13.43
2018-02-22T09:08:34.188Z,11.90
2018-02-22T09:13:38.043Z,12.70
2018-02-22T09:18:42.268Z,12.70
2018-02-22T09:23:45.359Z,10.97
2018-02-22T09:28:49.217Z,11.10
2018-02-22T09:33:53.848Z,11.60
2018-02-22T09:38:58.081Z,10.67
2018-02-22T09:44:02.306Z,11.10
2018-02-22T09:49:05.792Z,10.90
2018-02-22T09:54:09.269Z,10.83
2018-02-22T09:59:12.352Z,10.17
2018-02-22T10:04:15.433Z,10.67
2018-02-22T10:09:19.287Z,9.67
2018-02-22T10:14:23.874Z,9.23
2018-02-22T10:19:27.353Z,9.30
2018-02-22T10:24:30.445Z,9.57
2018-02-22T10:29:34.876Z,8.23
2018-02-22T10:34:38.712Z,9.67
2018-02-22T10:39:43.308Z,8.60
2018-02-22T10:44:46.416Z,8.07
2018-02-22T10:49:49.500Z,8.83
2018-02-22T10:54:52.626Z,8.10
2018-02-22T10:59:56.439Z,7.87
2018-02-22T11:04:59.541Z,8.23
2018-02-22T11:10:02.629Z,8.03
2018-02-22T11:15:07.092Z,9.40
2018-02-22T11:20:10.952Z,9.77
2018-02-22T11:25:15.398Z,8.30
2018-02-22T11:30:19.827Z,8.33
2018-02-22T11:35:24.267Z,7.63
2018-02-22T11:40:27.731Z,7.67
2018-02-22T11:45:30.818Z,7.73
2018-02-22T11:50:34.837Z,7.47
2018-02-22T11:55:38.696Z,8.37
2018-02-22T12:00:41.771Z,8.07
2018-02-22T12:05:44.847Z,7.43
2018-02-22T12:10:48.705Z,7.17
2018-02-22T12:15:57.452Z,7.23
2018-02-22T12:21:01.294Z,7.23
2018-02-22T12:26:05.723Z,7.17
2018-02-22T12:31:08.808Z,7.30
2018-02-22T12:36:13.243Z,7.97
2018-02-22T12:41:16.332Z,7.17
2018-02-22T12:46:20.767Z,7.70
2018-02-22T12:51:24.983Z,7.70
2018-02-22T12:56:28.081Z,8.27
2018-02-22T13:01:31.947Z,7.95
2018-02-22T13:06:35.997Z,8.63
2018-02-22T13:11:40.211Z,8.10
2018-02-22T13:16:44.798Z,7.50
2018-02-22T13:21:47.884Z,8.00
2018-02-22T13:26:52.096Z,8.10
2018-02-22T13:31:57.368Z,7.90
2018-02-22T13:37:00.909Z,7.93
2018-02-22T13:42:04.352Z,8.47
2018-02-22T13:47:09.232Z,9.15
2018-02-22T13:52:13.659Z,8.33
2018-02-22T13:57:19.503Z,8.30
2018-02-22T14:02:26.677Z,8.50
2018-02-22T14:07:30.173Z,8.30
2018-02-22T14:12:34.941Z,8.63
2018-02-22T14:17:38.801Z,8.70
2018-02-22T14:22:42.287Z,8.45
2018-02-22T14:27:46.727Z,8.70
2018-02-22T14:32:50.591Z,9.47
2018-02-22T14:37:55.028Z,9.13
2018-02-22T14:42:59.473Z,9.23
2018-02-22T14:48:03.325Z,9.97
2018-02-22T14:53:07.775Z,9.10
2018-02-22T14:58:11.818Z,9.07
2018-02-22T15:03:16.399Z,9.20
2018-02-22T15:08:21.600Z,9.77
2018-02-22T15:13:25.080Z,8.80
2018-02-22T15:18:29.308Z,9.43
2018-02-22T15:23:33.528Z,9.40
2018-02-22T15:28:36.621Z,9.07
2018-02-22T15:33:41.220Z,8.63
2018-02-22T15:38:45.089Z,9.20
2018-02-22T15:43:49.529Z,9.90
2018-02-22T15:48:53.969Z,9.13
2018-02-22T15:53:58.611Z,10.10
2018-02-22T15:59:03.056Z,8.43
2018-02-22T16:04:06.148Z,9.37
2018-02-22T16:09:10.579Z,9.20
2018-02-22T16:14:13.670Z,9.00
2018-02-22T16:19:18.162Z,8.90
2018-02-22T16:24:21.260Z,8.93
2018-02-22T16:29:24.760Z,9.70
2018-02-22T16:34:28.624Z,9.20
2018-02-22T16:39:33.233Z,9.13
2018-02-22T16:44:36.320Z,9.50
2018-02-22T16:49:40.762Z,10.80
2018-02-22T16:54:45.872Z,9.40
2018-02-22T16:59:50.302Z,9.47
2018-02-22T17:04:54.897Z,8.87
2018-02-22T17:09:59.340Z,9.17
2018-02-22T17:15:03.793Z,9.33
2018-02-22T17:20:08.234Z,10.77
2018-02-22T17:25:12.076Z,10.60
2018-02-22T17:30:22.084Z,11.33
2018-02-22T17:35:27.387Z,11.83
2018-02-22T17:40:34.356Z,10.80
2018-02-22T17:45:37.833Z,10.63
2018-02-22T17:50:40.931Z,10.95
2018-02-22T17:55:44.040Z,9.07
2018-02-22T18:00:47.133Z,9.00
2018-02-22T18:05:51.904Z,9.47
2018-02-22T18:10:54.984Z,9.67
2018-02-22T18:15:58.847Z,10.13
2018-02-22T18:21:02.709Z,10.97
2018-02-22T18:26:05.807Z,11.63
2018-02-22T18:31:08.908Z,9.50
2018-02-22T18:36:12.383Z,8.77
2018-02-22T18:41:16.341Z,9.40
2018-02-22T18:46:20.224Z,8.60
2018-02-22T18:51:23.304Z,8.40
2018-02-22T18:56:27.906Z,8.77
2018-02-22T19:01:31.393Z,8.13
2018-02-22T19:06:35.835Z,8.60
2018-02-22T19:11:38.944Z,8.95
2018-02-22T19:16:42.425Z,8.93
2018-02-22T19:21:46.280Z,7.90
2018-02-22T19:26:50.801Z,9.30
2018-02-22T19:31:55.230Z,10.30
2018-02-22T19:36:59.679Z,10.10
2018-02-22T19:42:04.814Z,10.10
2018-02-22T19:47:09.660Z,10.52
2018-02-22T19:52:14.284Z,9.93
2018-02-22T19:57:18.513Z,12.77
2018-02-22T20:02:22.749Z,11.10
2018-02-22T20:07:27.201Z,10.85
2018-02-22T20:12:30.345Z,11.10
2018-02-22T20:17:34.779Z,11.07
2018-02-22T20:22:39.239Z,10.73
2018-02-22T20:27:42.832Z,11.00
2018-02-22T20:32:45.922Z,10.03
2018-02-22T20:37:50.380Z,10.33
2018-02-22T20:42:53.478Z,10.77
2018-02-22T20:47:56.596Z,11.30
2018-02-22T20:58:40.327Z,11.20
2018-02-22T21:03:43.457Z,10.03
2018-02-22T21:08:47.895Z,10.80
2018-02-22T21:13:52.007Z,10.93
2018-02-22T21:18:56.442Z,11.95
2018-02-22T21:23:59.528Z,10.83
2018-02-22T21:29:03.981Z,11.57
2018-02-22T21:34:07.067Z,12.00
2018-02-22T21:39:10.555Z,12.33
2018-02-22T21:44:14.795Z,13.07
2018-02-22T21:49:18.669Z,12.07
2018-02-22T21:54:22.527Z,12.57
2018-02-22T21:59:26.383Z,11.40
2018-02-22T22:04:30.843Z,11.53
2018-02-22T22:09:35.267Z,12.45
2018-02-22T22:14:38.367Z,11.87
2018-02-22T22:19:42.234Z,11.40
2018-02-22T22:24:46.846Z,11.93
2018-02-22T22:29:51.507Z,11.43
2018-02-22T22:34:54.615Z,11.13
2018-02-22T22:39:58.472Z,13.03
2018-02-22T22:45:02.318Z,12.50
2018-02-22T22:50:05.417Z,11.63
2018-02-22T22:55:09.857Z,11.73
2018-02-22T23:00:12.960Z,12.10
2018-02-22T23:05:16.440Z,11.87
2018-02-22T23:10:19.977Z,11.67
2018-02-22T23:15:24.223Z,12.53
2018-02-22T23:20:28.679Z,11.37
2018-02-22T23:25:32.208Z,10.57
2018-02-22T23:30:36.662Z,12.10
2018-02-22T23:35:40.527Z,11.30
2018-02-22T23:40:49.568Z,10.57
2018-02-22T23:45:52.684Z,11.80
2018-02-22T23:50:57.107Z,10.13
2018-02-22T23:56:01.720Z,12.17
